Time;durP1;ratioP1;P1;durP2;ratioP2;P2;SDS_P1;SDS_P2;PMS_P1;PMS_P2;Temp;Humidity;BMP_temperature;BMP_pressure;BME280_temperature;BME280_humidity;BME280_pressure;Samples;Min_cycle;Max_cycle;Signal;HPM_P1;HPM_P2
2024/01/10 00:00:44;;;;;;;6.60;3.00;;;;;;;-5.49;81.10;100708.69;109437;1253;68746;-84
2024/01/10 00:03:11;;;;;;;6.10;2.90;;;;;;;-5.56;81.29;100711.84;109357;1253;71055;-83
2024/01/10 00:05:39;;;;;;;6.50;3.30;;;;;;;-5.64;81.41;100703.93;107677;1253;59498;-82
2024/01/10 00:08:06;;;;;;;6.50;3.20;;;;;;;-5.70;81.51;100703.58;106703;1253;60054;-82
2024/01/10 00:10:34;;;;;;;6.20;3.20;;;;;;;-5.64;81.40;100698.59;106708;1253;73170;-84
2024/01/10 00:13:01;;;;;;;5.70;3.20;;;;;;;-5.61;81.36;100699.88;106460;1254;69642;-83
2024/01/10 00:15:28;;;;;;;7.30;3.70;;;;;;;-5.67;81.37;100691.59;106564;1259;73181;-83
2024/01/10 00:17:56;;;;;;;5.10;3.20;;;;;;;-5.76;81.47;100690.80;106370;1253;59829;-80
2024/01/10 00:20:23;;;;;;;6.30;3.40;;;;;;;-5.84;81.49;100687.91;106162;1256;59679;-80
2024/01/10 00:22:51;;;;;;;6.10;3.10;;;;;;;-5.80;81.48;100685.21;107293;1252;72151;-80
2024/01/10 00:25:19;;;;;;;7.00;3.60;;;;;;;-5.76;81.30;100683.70;108085;1254;69334;-81
2024/01/10 00:27:46;;;;;;;5.10;3.20;;;;;;;-5.83;81.43;100679.08;108062;1254;73534;-80
2024/01/10 00:30:14;;;;;;;4.90;3.00;;;;;;;-5.90;81.53;100685.48;106661;1257;59612;-79
2024/01/10 00:32:41;;;;;;;6.10;3.20;;;;;;;-5.97;81.34;100677.05;106335;1254;62323;-81
2024/01/10 00:35:10;;;;;;;8.10;3.80;;;;;;;-6.00;81.37;100676.29;106761;1254;73041;-80
2024/01/10 00:37:38;;;;;;;6.10;3.40;;;;;;;-5.92;80.89;100672.94;107166;1254;68719;-81
2024/01/10 00:40:06;;;;;;;7.50;3.90;;;;;;;-5.95;80.65;100670.25;106375;1253;71515;-81
2024/01/10 00:42:33;;;;;;;6.00;3.30;;;;;;;-6.02;80.60;100677.02;107082;1254;59687;-79
2024/01/10 00:45:01;;;;;;;6.10;3.50;;;;;;;-6.08;80.90;100680.27;106512;1256;59711;-80
2024/01/10 00:47:28;;;;;;;7.80;4.20;;;;;;;-6.14;80.89;100685.42;105997;1259;72964;-81
2024/01/10 00:49:56;;;;;;;6.40;3.90;;;;;;;-6.14;80.46;100684.74;106179;1254;70288;-82
2024/01/10 00:52:24;;;;;;;6.80;3.40;;;;;;;-6.05;80.22;100681.05;106500;1254;71401;-82
2024/01/10 00:54:51;;;;;;;7.90;4.30;;;;;;;-6.08;80.23;100674.92;108209;1254;59699;-82
2024/01/10 00:57:18;;;;;;;8.40;4.60;;;;;;;-6.15;80.48;100667.70;109316;1253;58765;-82
2024/01/10 00:59:46;;;;;;;8.00;4.40;;;;;;;-6.21;80.60;100664.56;108591;1253;71719;-80
2024/01/10 01:02:13;;;;;;;7.70;4.50;;;;;;;-6.25;80.68;100661.23;106234;1257;68874;-80
2024/01/10 01:04:41;;;;;;;8.70;4.50;;;;;;;-6.14;80.63;100660.27;106728;1254;72682;-80
2024/01/10 01:07:09;;;;;;;7.30;4.10;;;;;;;-6.08;80.44;100659.60;106335;1256;59689;-80
2024/01/10 01:09:36;;;;;;;9.50;4.00;;;;;;;-6.14;80.72;100656.13;105944;1254;59692;-81
2024/01/10 01:12:04;;;;;;;7.40;4.30;;;;;;;-6.22;80.88;100653.56;105870;1253;71750;-80
2024/01/10 01:14:31;;;;;;;8.30;4.10;;;;;;;-6.27;81.09;100660.59;106050;1254;68643;-81
2024/01/10 01:16:59;;;;;;;8.30;4.60;;;;;;;-6.28;81.37;100657.86;105902;1254;70922;-81
2024/01/10 01:19:26;;;;;;;9.60;4.30;;;;;;;-6.15;81.50;100659.08;106354;1257;60408;-82
2024/01/10 01:21:54;;;;;;;7.60;3.90;;;;;;;-6.12;81.17;100664.35;107973;1254;59720;-82
2024/01/10 01:24:21;;;;;;;7.60;4.30;;;;;;;-6.16;81.48;100656.84;107843;1253;71766;-81
2024/01/10 01:26:49;;;;;;;8.30;4.20;;;;;;;-6.17;81.75;100657.58;106119;1257;69269;-80
2024/01/10 01:29:16;;;;;;;10.80;5.00;;;;;;;-6.19;81.76;100651.23;105853;1254;71487;-80
2024/01/10 01:31:44;;;;;;;7.20;4.30;;;;;;;-6.13;81.73;100651.44;105867;1254;61662;-81
2024/01/10 01:34:12;;;;;;;9.50;4.40;;;;;;;-6.00;81.50;100651.27;106114;1254;59999;-81
2024/01/10 01:36:39;;;;;;;9.50;4.30;;;;;;;-5.98;81.71;100646.90;106086;1254;70884;-80
2024/01/10 01:39:07;;;;;;;7.30;3.90;;;;;;;-6.02;81.88;100651.13;106555;1254;70380;-82
2024/01/10 01:41:34;;;;;;;6.80;4.40;;;;;;;-6.05;81.99;100650.70;106123;1254;71199;-81
2024/01/10 01:44:01;;;;;;;9.00;4.80;;;;;;;-6.07;82.26;100649.73;107165;1254;60133;-83
2024/01/10 01:46:29;;;;;;;9.10;5.30;;;;;;;-6.06;82.40;100646.08;106904;1257;59168;-84
2024/01/10 01:48:56;;;;;;;7.40;4.50;;;;;;;-5.93;82.22;100642.77;107175;1254;73034;-82
2024/01/10 01:51:24;;;;;;;8.40;4.90;;;;;;;-5.85;82.20;100641.67;106808;1257;68875;-84
2024/01/10 01:53:52;;;;;;;8.10;4.90;;;;;;;-5.88;82.42;100635.21;108733;1254;71450;-84
2024/01/10 01:56:20;;;;;;;8.50;4.30;;;;;;;-5.91;82.64;100631.86;109482;1253;59001;-84
2024/01/10 01:58:48;;;;;;;9.00;5.40;;;;;;;-5.93;82.74;100629.48;109414;1252;58568;-83
2024/01/10 02:01:15;;;;;;;8.60;4.30;;;;;;;-5.90;82.91;100621.65;109314;1252;71799;-83
2024/01/10 02:03:43;;;;;;;9.90;4.30;;;;;;;-5.75;82.82;100616.72;109110;1253;69180;-83
2024/01/10 02:06:11;;;;;;;8.90;4.20;;;;;;;-5.68;82.69;100612.55;106808;1254;71618;-83
2024/01/10 02:08:39;;;;;;;6.70;4.00;;;;;;;-5.72;82.85;100602.68;106626;1255;59650;-84
2024/01/10 02:11:07;;;;;;;8.70;4.20;;;;;;;-5.78;83.06;100593.73;106503;1254;59919;-84
2024/01/10 02:13:34;;;;;;;7.70;4.10;;;;;;;-5.83;83.18;100588.98;106244;1259;73570;-81
2024/01/10 02:16:03;;;;;;;7.40;4.20;;;;;;;-5.83;83.48;100583.48;105708;1256;69087;-81
2024/01/10 02:18:31;;;;;;;8.30;4.10;;;;;;;-5.73;83.17;100577.68;105860;1254;72614;-80
2024/01/10 02:20:59;;;;;;;7.90;3.80;;;;;;;-5.73;83.15;100580.63;106169;1253;60633;-80
2024/01/10 02:23:26;;;;;;;7.30;4.10;;;;;;;-5.81;83.36;100574.63;106026;1256;60435;-81
2024/01/10 02:25:54;;;;;;;9.00;4.70;;;;;;;-5.87;83.99;100572.23;105965;1254;74799;-80
2024/01/10 02:28:23;;;;;;;11.30;4.60;;;;;;;-5.91;84.09;100571.45;105903;1254;69187;-79
2024/01/10 02:30:51;;;;;;;6.90;4.00;;;;;;;-5.83;83.99;100566.23;105977;1258;72830;-81
2024/01/10 02:33:18;;;;;;;7.10;3.80;;;;;;;-5.73;83.85;100567.31;105967;1253;60466;-79
2024/01/10 02:35:46;;;;;;;6.60;3.80;;;;;;;-5.75;84.13;100566.02;106057;1254;60352;-85
2024/01/10 02:38:13;;;;;;;5.80;3.80;;;;;;;-5.80;84.23;100568.22;106575;1254;73948;-84
2024/01/10 02:40:41;;;;;;;7.00;3.90;;;;;;;-5.84;84.59;100579.90;106449;1255;70699;-83
2024/01/10 02:43:09;;;;;;;6.80;4.00;;;;;;;-5.85;84.66;100574.94;107930;1254;72651;-83
2024/01/10 02:45:37;;;;;;;7.10;4.10;;;;;;;-5.73;84.53;100572.67;107105;1254;61675;-83
2024/01/10 02:48:04;;;;;;;6.10;4.00;;;;;;;-5.63;84.33;100559.77;106165;1254;60364;-82
2024/01/10 02:50:34;;;;;;;9.20;4.50;;;;;;;-5.64;84.40;100555.87;106335;1253;74350;-82
2024/01/10 02:53:01;;;;;;;6.60;3.50;;;;;;;-5.68;84.59;100557.36;109291;1253;68882;-81
2024/01/10 02:55:29;;;;;;;7.70;4.80;;;;;;;-5.71;84.75;100559.52;108106;1254;70250;-81
2024/01/10 02:57:56;;;;;;;8.00;5.00;;;;;;;-5.71;84.84;100556.59;108574;1252;60454;-80
2024/01/10 03:00:24;;;;;;;7.40;3.60;;;;;;;-5.60;84.63;100557.64;109383;1254;58074;-79
2024/01/10 03:02:51;;;;;;;5.60;3.70;;;;;;;-5.48;84.33;100560.39;106185;1254;72582;-78
2024/01/10 03:05:19;;;;;;;6.50;3.90;;;;;;;-5.48;84.43;100553.47;106178;1254;68753;-82
2024/01/10 03:07:46;;;;;;;8.60;3.70;;;;;;;-5.51;84.36;100550.80;106144;1261;71426;-81
2024/01/10 03:10:13;;;;;;;7.20;4.10;;;;;;;-5.56;84.66;100550.44;106249;1254;60566;-81
2024/01/10 03:12:41;;;;;;;6.50;4.20;;;;;;;-5.60;84.61;100545.70;106392;1251;60818;-80
2024/01/10 03:15:09;;;;;;;6.60;4.20;;;;;;;-5.53;84.38;100551.20;106478;1256;73854;-79
2024/01/10 03:17:36;;;;;;;6.70;4.20;;;;;;;-5.43;84.24;100552.13;106020;1251;70142;-81
2024/01/10 03:20:04;;;;;;;6.90;4.10;;;;;;;-5.47;84.30;100547.40;106538;1253;71238;-79
2024/01/10 03:22:32;;;;;;;6.80;4.10;;;;;;;-5.53;84.49;100546.55;107198;1254;60294;-79
2024/01/10 03:24:59;;;;;;;6.00;3.70;;;;;;;-5.59;84.62;100549.15;106226;1254;60405;-78
2024/01/10 03:27:27;;;;;;;9.10;5.00;;;;;;;-5.59;84.63;100546.20;107827;1253;73863;-78
2024/01/10 03:29:54;;;;;;;6.90;4.40;;;;;;;-5.48;84.43;100551.77;107043;1251;70052;-80
2024/01/10 03:32:22;;;;;;;7.40;4.10;;;;;;;-5.48;84.62;100551.40;105978;1253;72437;-80
2024/01/10 03:34:51;;;;;;;7.50;4.40;;;;;;;-5.53;84.69;100549.81;105890;1254;60540;-79
2024/01/10 03:37:19;;;;;;;8.20;4.90;;;;;;;-5.59;84.92;100541.89;105862;1258;60418;-78
2024/01/10 03:39:46;;;;;;;6.80;4.40;;;;;;;-5.63;84.99;100541.00;106135;1251;73851;-79
2024/01/10 03:42:15;;;;;;;8.30;4.90;;;;;;;-5.55;85.05;100535.73;105971;1256;69442;-78
2024/01/10 03:44:43;;;;;;;7.20;4.30;;;;;;;-5.44;84.94;100533.52;106321;1257;71524;-79
2024/01/10 03:47:10;;;;;;;7.20;4.10;;;;;;;-5.46;85.11;100540.80;106309;1254;60440;-80
2024/01/10 03:49:38;;;;;;;7.40;4.10;;;;;;;-5.48;85.12;100534.14;106583;1252;60218;-79
2024/01/10 03:52:05;;;;;;;6.80;4.20;;;;;;;-5.50;85.15;100537.85;109347;1256;72562;-81
2024/01/10 03:54:33;;;;;;;9.40;4.30;;;;;;;-5.54;85.23;100536.03;108975;1253;69254;-79
2024/01/10 03:57:01;;;;;;;9.00;4.80;;;;;;;-5.45;84.92;100527.64;106747;1256;70525;-76
2024/01/10 03:59:28;;;;;;;9.70;5.10;;;;;;;-5.37;84.83;100525.16;106872;1258;60633;-78
2024/01/10 04:01:56;;;;;;;8.60;5.00;;;;;;;-5.39;84.76;100530.60;106418;1251;60341;-79
2024/01/10 04:04:23;;;;;;;8.10;4.50;;;;;;;-5.45;85.18;100533.53;106423;1251;72618;-78
2024/01/10 04:06:52;;;;;;;8.30;4.70;;;;;;;-5.47;85.49;100538.59;106672;1251;70294;-78
2024/01/10 04:09:19;;;;;;;7.10;4.30;;;;;;;-5.49;85.40;100536.60;106527;1254;72453;-78
2024/01/10 04:11:46;;;;;;;8.20;4.60;;;;;;;-5.41;85.41;100531.67;106415;1254;60536;-78
2024/01/10 04:14:15;;;;;;;9.40;4.90;;;;;;;-5.29;85.00;100529.58;106015;1257;60401;-79
2024/01/10 04:16:43;;;;;;;8.40;4.90;;;;;;;-5.28;85.14;100524.39;106253;1257;73874;-78
2024/01/10 04:19:10;;;;;;;7.10;4.70;;;;;;;-5.33;85.37;100520.20;106649;1254;70999;-78
2024/01/10 04:21:38;;;;;;;9.00;5.00;;;;;;;-5.36;85.52;100521.34;106456;1259;71060;-79
2024/01/10 04:24:05;;;;;;;9.50;4.80;;;;;;;-5.38;85.54;100522.27;105974;1251;60445;-79
2024/01/10 04:26:33;;;;;;;6.90;4.40;;;;;;;-5.32;85.17;100520.85;106087;1251;60489;-79
2024/01/10 04:29:00;;;;;;;8.40;5.50;;;;;;;-5.22;85.06;100513.81;106348;1251;72684;-81
2024/01/10 04:31:28;;;;;;;10.50;6.30;;;;;;;-5.24;85.35;100514.91;106554;1251;68718;-83
2024/01/10 04:33:55;;;;;;;10.10;5.50;;;;;;;-5.26;85.48;100510.67;105993;1257;72674;-81
2024/01/10 04:36:23;;;;;;;8.90;5.60;;;;;;;-5.30;85.87;100508.72;106232;1253;60658;-80
2024/01/10 04:38:50;;;;;;;13.80;5.40;;;;;;;-5.34;85.83;100502.27;106160;1251;60516;-80
2024/01/10 04:41:18;;;;;;;7.60;4.90;;;;;;;-5.26;85.63;100502.20;106868;1251;72615;-81
2024/01/10 04:43:45;;;;;;;10.00;5.70;;;;;;;-5.15;85.37;100497.17;107407;1251;68890;-79
2024/01/10 04:46:13;;;;;;;8.80;5.30;;;;;;;-5.16;85.52;100499.45;107253;1254;72594;-81
2024/01/10 04:48:40;;;;;;;9.30;5.50;;;;;;;-5.19;85.56;100504.06;108129;1250;60319;-82
2024/01/10 04:51:08;;;;;;;8.30;5.00;;;;;;;-5.23;86.03;100506.26;109018;1251;57763;-80
2024/01/10 04:55:36;;;;;;;8.50;5.40;;;;;;;-5.16;86.01;100508.45;104676;1293;612825;-77
2024/01/10 04:58:02;;;;;;;9.70;5.30;;;;;;;-5.01;85.77;100514.34;106955;1267;59394;-79
2024/01/10 05:00:30;;;;;;;13.10;7.70;;;;;;;-4.95;85.90;100522.27;106675;1264;59244;-80
2024/01/10 05:02:57;;;;;;;9.80;5.60;;;;;;;-4.97;86.12;100525.77;106446;1260;72176;-79
2024/01/10 05:05:24;;;;;;;10.10;6.10;;;;;;;-4.98;86.19;100527.53;107689;1260;68958;-78
2024/01/10 05:07:51;;;;;;;10.10;6.30;;;;;;;-5.00;85.96;100527.61;107601;1261;376991;-81
2024/01/10 05:10:18;;;;;;;8.50;5.60;;;;;;;-5.01;86.08;100535.95;107758;1256;60357;-80
2024/01/10 05:12:44;;;;;;;9.80;5.00;;;;;;;-4.91;85.66;100540.46;107747;1257;59233;-81
2024/01/10 05:15:12;;;;;;;8.20;5.60;;;;;;;-4.80;85.39;100546.68;106885;1257;72241;-79
2024/01/10 05:17:39;;;;;;;10.20;5.60;;;;;;;-4.83;85.44;100548.48;106026;1258;59272;-80
2024/01/10 05:20:06;;;;;;;9.50;5.50;;;;;;;-4.88;85.82;100549.86;106826;1254;71709;-82
2024/01/10 05:22:34;;;;;;;10.10;6.20;;;;;;;-4.92;86.19;100552.77;106851;1254;59612;-82
2024/01/10 05:25:01;;;;;;;10.20;6.20;;;;;;;-4.94;86.38;100553.69;108335;1251;59644;-83
2024/01/10 05:27:29;;;;;;;10.70;5.90;;;;;;;-4.95;86.43;100557.67;107495;1256;73176;-83
2024/01/10 05:29:55;;;;;;;10.90;6.70;;;;;;;-4.84;85.95;100554.40;106870;1255;68786;-80
2024/01/10 05:32:22;;;;;;;9.50;6.20;;;;;;;-4.76;85.57;100555.16;107250;1256;72644;-80
2024/01/10 05:34:49;;;;;;;10.80;6.50;;;;;;;-4.78;85.83;100555.91;106101;1257;59650;-79
2024/01/10 05:37:16;;;;;;;10.10;6.10;;;;;;;-4.84;86.08;100562.35;106261;1253;60119;-77
2024/01/10 05:39:42;;;;;;;12.30;7.10;;;;;;;-4.90;86.29;100561.35;106214;1254;71767;-78
2024/01/10 05:42:09;;;;;;;11.20;7.40;;;;;;;-4.94;86.60;100564.57;106177;1254;70260;-80
2024/01/10 05:44:36;;;;;;;10.50;5.90;;;;;;;-4.85;86.45;100562.40;106226;1254;70582;-79
2024/01/10 05:47:02;;;;;;;11.50;5.40;;;;;;;-4.71;86.19;100563.85;108129;1254;61027;-79
2024/01/10 05:49:29;;;;;;;11.70;7.00;;;;;;;-4.70;86.34;100566.23;109375;1254;59238;-79
2024/01/10 05:51:56;;;;;;;9.60;6.30;;;;;;;-4.71;86.57;100567.79;107791;1254;71478;-77
2024/01/10 05:54:22;;;;;;;12.50;6.90;;;;;;;-4.71;86.51;100567.98;106470;1254;70881;-77
2024/01/10 05:56:49;;;;;;;14.70;7.40;;;;;;;-4.77;86.28;100562.28;106439;1257;72594;-77
2024/01/10 05:59:16;;;;;;;12.90;7.40;;;;;;;-4.73;86.40;100564.06;106136;1254;62005;-77
2024/01/10 06:01:43;;;;;;;9.60;6.10;;;;;;;-4.65;86.18;100561.39;106584;1253;60222;-78
2024/01/10 06:04:10;;;;;;;11.10;7.20;;;;;;;-4.66;86.31;100562.98;106178;1256;72860;-77
2024/01/10 06:06:36;;;;;;;11.70;7.10;;;;;;;-4.69;86.71;100561.51;105936;1254;70267;-77
2024/01/10 06:09:03;;;;;;;11.30;7.50;;;;;;;-4.73;86.72;100562.83;105966;1254;72398;-77
2024/01/10 06:11:30;;;;;;;13.90;7.40;;;;;;;-4.74;87.05;100566.52;106065;1254;60174;-82
2024/01/10 06:13:57;;;;;;;11.50;7.10;;;;;;;-4.68;86.63;100558.87;107245;1253;59551;-81
2024/01/10 06:16:24;;;;;;;11.90;6.90;;;;;;;-4.57;86.28;100557.13;106906;1253;70721;-83
2024/01/10 06:18:51;;;;;;;10.30;7.10;;;;;;;-4.57;86.20;100556.26;106194;1254;70089;-81
2024/01/10 06:21:18;;;;;;;12.50;7.20;;;;;;;-4.63;86.24;100556.11;106646;1254;71150;-81
2024/01/10 06:23:44;;;;;;;11.20;6.80;;;;;;;-4.68;86.60;100564.95;106301;1254;59615;-80
2024/01/10 06:26:11;;;;;;;13.40;7.50;;;;;;;-4.74;86.73;100565.64;106063;1254;60322;-79
2024/01/10 06:28:38;;;;;;;12.40;7.80;;;;;;;-4.69;86.56;100568.09;107068;1253;71814;-80
2024/01/10 06:31:05;;;;;;;13.10;8.00;;;;;;;-4.59;86.23;100569.45;108693;1254;68802;-78
2024/01/10 06:33:34;;;;;;;14.30;8.00;;;;;;;-4.59;86.52;100565.33;108639;1252;71405;-82
2024/01/10 06:36:01;;;;;;;17.00;9.10;;;;;;;-4.61;86.73;100568.33;109370;1254;59608;-82
2024/01/10 06:38:27;;;;;;;13.40;8.50;;;;;;;-4.65;86.91;100573.64;108845;1252;61297;-84
2024/01/10 06:40:55;;;;;;;16.00;9.00;;;;;;;-4.65;87.07;100577.98;107569;1257;73017;-84
2024/01/10 06:43:21;;;;;;;15.20;8.90;;;;;;;-4.65;87.15;100576.58;109186;1253;68868;-86
2024/01/10 06:45:49;;;;;;;13.20;8.10;;;;;;;-4.53;86.77;100571.33;109709;1252;70378;-85
2024/01/10 06:48:15;;;;;;;16.50;9.00;;;;;;;-4.40;86.65;100574.71;109583;1253;58046;-85
2024/01/10 06:50:44;;;;;;;15.20;9.50;;;;;;;-4.37;86.78;100578.58;109268;1252;59009;-84
2024/01/10 06:53:10;;;;;;;14.70;8.80;;;;;;;-4.40;86.70;100578.85;108005;1253;73445;-77
2024/01/10 06:55:38;;;;;;;17.40;9.60;;;;;;;-4.42;86.80;100580.99;106363;1254;68791;-79
2024/01/10 06:58:04;;;;;;;15.20;8.80;;;;;;;-4.45;86.81;100577.63;105956;1253;72619;-78
2024/01/10 07:00:31;;;;;;;15.30;8.40;;;;;;;-4.37;86.45;100579.63;105960;1255;59570;-77
2024/01/10 07:03:01;;;;;;;15.60;9.70;;;;;;;-4.29;86.49;100580.71;105997;1254;60236;-76
2024/01/10 07:05:28;;;;;;;14.80;7.90;;;;;;;-4.25;87.12;100580.42;106191;1254;72965;-76
2024/01/10 07:07:55;;;;;;;17.70;9.50;;;;;;;-4.23;87.20;100584.85;106010;1254;70143;-76
2024/01/10 07:10:25;;;;;;;18.20;9.50;;;;;;;-4.24;86.97;100583.15;106073;1257;72505;-77
2024/01/10 07:12:52;;;;;;;16.60;10.40;;;;;;;-4.25;86.91;100580.92;106162;1256;59720;-77
2024/01/10 07:15:19;;;;;;;14.90;8.90;;;;;;;-4.25;86.68;100576.80;106219;1253;59656;-76
2024/01/10 07:17:45;;;;;;;14.80;8.60;;;;;;;-4.16;86.05;100574.05;106070;1255;72875;-76
2024/01/10 07:20:12;;;;;;;15.30;9.70;;;;;;;-4.07;85.57;100570.98;106158;1257;59752;-76
2024/01/10 07:22:41;;;;;;;13.60;8.90;;;;;;;-4.11;85.58;100567.64;106617;1254;71118;-76
2024/01/10 07:25:14;;;;;;;17.20;9.70;;;;;;;-4.17;85.87;100563.34;107735;1256;59628;-76
2024/01/10 07:27:40;;;;;;;15.20;9.30;;;;;;;-4.20;86.04;100563.82;106955;1256;59638;-77
2024/01/10 07:30:13;;;;;;;14.80;10.00;;;;;;;-4.22;86.08;100565.08;106063;1254;71625;-76
2024/01/10 07:32:41;;;;;;;18.50;11.00;;;;;;;-4.24;85.91;100563.79;105922;1254;70259;-77
2024/01/10 07:35:11;;;;;;;16.50;10.50;;;;;;;-4.14;85.65;100561.02;106030;1253;72842;-77
2024/01/10 07:37:39;;;;;;;18.20;10.10;;;;;;;-4.03;85.51;100559.40;105969;1254;60414;-77
2024/01/10 07:40:07;;;;;;;15.10;9.80;;;;;;;-4.01;85.71;100562.45;106106;1255;60220;-77
2024/01/10 07:42:34;;;;;;;20.40;12.10;;;;;;;-4.04;85.52;100566.35;107939;1253;73134;-78
2024/01/10 07:45:04;;;;;;;19.60;10.70;;;;;;;-4.12;85.35;100567.68;109235;1252;69053;-78
2024/01/10 07:47:32;;;;;;;19.20;11.10;;;;;;;-4.14;85.37;100564.29;109102;1252;71393;-76
2024/01/10 07:49:58;;;;;;;18.20;11.90;;;;;;;-4.00;85.30;100566.23;106991;1255;59765;-77
2024/01/10 07:52:26;;;;;;;18.60;11.40;;;;;;;-3.94;85.44;100563.77;106214;1253;59842;-77
2024/01/10 07:54:53;;;;;;;22.10;12.80;;;;;;;-3.94;85.39;100559.26;106128;1253;73343;-78
2024/01/10 07:57:19;;;;;;;18.80;11.70;;;;;;;-3.97;85.43;100565.25;105990;1254;68942;-77
2024/01/10 07:59:47;;;;;;;18.60;10.50;;;;;;;-4.04;85.33;100570.16;106235;1253;72784;-75
2024/01/10 08:02:13;;;;;;;20.40;12.00;;;;;;;-4.05;85.31;100578.84;106065;1254;61211;-77
2024/01/10 08:04:40;;;;;;;18.30;10.80;;;;;;;-3.91;85.21;100581.27;106744;1254;59616;-76
2024/01/10 08:07:07;;;;;;;17.30;11.60;;;;;;;-3.85;85.05;100584.04;106699;1251;70765;-75
2024/01/10 08:09:34;;;;;;;21.00;11.40;;;;;;;-3.86;85.21;100582.51;105973;1251;70338;-76
2024/01/10 08:12:01;;;;;;;21.50;12.40;;;;;;;-3.89;85.33;100576.19;106003;1257;72580;-76
2024/01/10 08:14:27;;;;;;;21.30;12.60;;;;;;;-3.90;85.41;100581.63;106028;1251;59647;-76
2024/01/10 08:16:57;;;;;;;25.30;13.90;;;;;;;-3.90;85.09;100582.29;107201;1253;60295;-76
2024/01/10 08:19:27;;;;;;;19.30;12.50;;;;;;;-3.79;84.67;100585.52;108313;1251;71728;-78
2024/01/10 08:21:54;;;;;;;20.90;13.20;;;;;;;-3.76;84.65;100589.41;107506;1256;70028;-76
2024/01/10 08:24:21;;;;;;;22.40;13.80;;;;;;;-3.79;85.09;100591.74;106104;1251;59650;-78
2024/01/10 08:26:51;;;;;;;19.60;12.50;;;;;;;-3.79;85.28;100598.16;106081;1251;59544;-76
2024/01/10 08:29:19;;;;;;;20.30;12.20;;;;;;;-3.81;85.30;100602.38;106209;1251;59643;-76
2024/01/10 08:31:45;;;;;;;22.00;12.50;;;;;;;-3.82;85.12;100600.01;106355;1252;72888;-77
2024/01/10 08:34:12;;;;;;;18.70;12.20;;;;;;;-3.71;84.81;100600.48;106403;1256;68881;-76
2024/01/10 08:36:39;;;;;;;20.90;13.00;;;;;;;-3.66;84.72;100602.91;107212;1253;73033;-77
2024/01/10 08:39:06;;;;;;;20.30;12.90;;;;;;;-3.70;85.06;100598.36;106635;1257;60015;-77
2024/01/10 08:41:33;;;;;;;21.60;13.30;;;;;;;-3.71;85.11;100602.20;106224;1253;60022;-76
2024/01/10 08:44:00;;;;;;;23.20;13.30;;;;;;;-3.77;85.13;100601.39;106740;1255;73010;-76
2024/01/10 08:46:26;;;;;;;21.20;12.90;;;;;;;-3.81;85.13;100598.56;107588;1251;67872;-75
2024/01/10 08:48:53;;;;;;;21.40;13.80;;;;;;;-3.71;85.20;100600.14;106677;1251;72896;-77
2024/01/10 08:51:20;;;;;;;22.20;13.70;;;;;;;-3.59;84.88;100605.05;106359;1254;59774;-78
2024/01/10 08:53:47;;;;;;;20.80;13.70;;;;;;;-3.61;84.88;100601.33;106018;1251;60142;-77
2024/01/10 08:56:15;;;;;;;22.20;13.70;;;;;;;-3.66;85.14;100599.26;105967;1257;72208;-76
2024/01/10 08:58:42;;;;;;;21.00;13.20;;;;;;;-3.72;85.06;100594.81;105982;1254;68976;-76
2024/01/10 09:01:09;;;;;;;22.50;13.70;;;;;;;-3.77;85.29;100589.94;105922;1254;71659;-77
2024/01/10 09:03:37;;;;;;;23.50;13.50;;;;;;;-3.70;84.88;100591.27;106108;1254;61243;-77
2024/01/10 09:06:04;;;;;;;22.10;13.30;;;;;;;-3.65;84.90;100591.95;106027;1256;60437;-78
2024/01/10 09:08:39;;;;;;;;;;;;;;;-3.67;85.12;100588.20;106165;1251;72448;-78
2024/01/10 09:11:05;;;;;;;20.50;12.60;;;;;;;-3.70;85.67;100584.52;106102;1251;70620;-78
2024/01/10 09:13:33;;;;;;;22.90;12.20;;;;;;;-3.73;85.58;100585.66;106384;1251;71490;-77
2024/01/10 09:16:00;;;;;;;25.90;15.60;;;;;;;-3.77;85.70;100579.56;106111;1251;61226;-77
2024/01/10 09:18:27;;;;;;;19.30;12.20;;;;;;;-3.67;85.60;100576.80;105986;1256;59201;-77
2024/01/10 09:20:54;;;;;;;22.10;13.00;;;;;;;-3.58;85.50;100567.77;105996;1254;73081;-78
2024/01/10 09:23:22;;;;;;;24.00;14.80;;;;;;;-3.60;85.68;100564.73;106113;1256;70180;-78
2024/01/10 09:25:49;;;;;;;22.90;14.30;;;;;;;-3.65;86.06;100561.98;106425;1251;73726;-77
2024/01/10 09:28:16;;;;;;;27.10;15.00;;;;;;;-3.64;86.31;100561.63;106212;1253;60375;-78
2024/01/10 09:30:43;;;;;;;22.10;14.00;;;;;;;-3.63;86.25;100557.77;106360;1257;60453;-77
2024/01/10 09:33:09;;;;;;;22.70;13.40;;;;;;;-3.50;85.80;100549.31;106414;1257;73742;-76
2024/01/10 09:35:37;;;;;;;20.60;13.10;;;;;;;-3.43;85.37;100552.32;106358;1251;71456;-77
2024/01/10 09:38:04;;;;;;;23.60;15.50;;;;;;;-3.47;85.73;100553.00;106585;1251;72687;-77
2024/01/10 09:40:30;;;;;;;24.30;15.10;;;;;;;-3.54;85.90;100552.23;108709;1251;59151;-77
2024/01/10 09:42:57;;;;;;;24.30;13.60;;;;;;;-3.58;86.18;100553.23;109000;1251;60580;-77
2024/01/10 09:45:24;;;;;;;23.80;14.70;;;;;;;-3.60;85.90;100553.14;107179;1255;72440;-79
2024/01/10 09:47:56;;;;;;;23.10;14.10;;;;;;;-3.51;85.76;100552.97;106247;1254;70197;-79
2024/01/10 09:50:25;;;;;;;25.80;14.90;;;;;;;-3.47;85.86;100556.13;106263;1253;71497;-78
2024/01/10 09:52:54;;;;;;;23.90;15.40;;;;;;;-3.50;86.10;100556.06;106085;1254;60627;-78
2024/01/10 09:55:21;;;;;;;25.30;15.60;;;;;;;-3.54;86.28;100552.21;106093;1255;60443;-77
2024/01/10 09:57:52;;;;;;;24.20;14.40;;;;;;;-3.58;86.20;100550.98;106108;1254;74011;-78
2024/01/10 10:00:18;;;;;;;23.50;13.80;;;;;;;-3.48;86.25;100553.21;106090;1251;70424;-78
2024/01/10 10:02:45;;;;;;;22.20;14.00;;;;;;;-3.38;85.93;100554.02;106133;1254;73872;-79
2024/01/10 10:05:17;;;;;;;23.60;13.40;;;;;;;-3.42;85.95;100553.68;106266;1251;60401;-77
2024/01/10 10:07:53;;;;;;;23.10;14.50;;;;;;;-3.46;86.41;100556.93;106276;1254;60536;-78
2024/01/10 10:10:19;;;;;;;24.90;13.90;;;;;;;-3.46;86.54;100559.38;106151;1253;71930;-78
2024/01/10 10:12:53;;;;;;;24.00;14.60;;;;;;;-3.44;86.46;100555.50;105910;1251;70334;-78
2024/01/10 10:15:27;;;;;;;25.10;15.80;;;;;;;-3.32;85.98;100555.04;106065;1255;71442;-77
2024/01/10 10:17:54;;;;;;;24.50;14.50;;;;;;;-3.31;86.01;100556.21;106077;1256;60415;-77
2024/01/10 10:20:25;;;;;;;27.70;17.60;;;;;;;-3.36;86.29;100553.61;106154;1256;60428;-78
2024/01/10 10:23:14;;;;;;;26.40;15.60;;;;;;;-3.37;86.60;100553.83;106549;1251;73937;-77
2024/01/10 10:25:44;;;;;;;24.80;15.00;;;;;;;-3.36;86.30;100556.75;109256;1251;68747;-78
2024/01/10 10:31:07;;;;;;;23.00;15.00;;;;;;;-3.22;86.21;100549.08;102315;1295;600075;-78
2024/01/10 10:33:34;;;;;;;24.40;15.00;;;;;;;-3.26;86.40;100545.63;105680;1262;59664;-78
2024/01/10 10:36:01;;;;;;;25.80;14.80;;;;;;;-3.30;86.46;100538.15;105954;1256;60401;-78
2024/01/10 10:38:27;;;;;;;24.20;14.00;;;;;;;-3.34;86.68;100534.99;107476;1256;72074;-78
2024/01/10 10:40:55;;;;;;;23.10;14.00;;;;;;;-3.26;86.46;100537.13;108616;1256;69142;-78
2024/01/10 10:43:21;;;;;;;24.60;15.80;;;;;;;-3.19;86.41;100538.55;107006;1256;179737;-76
2024/01/10 10:45:50;;;;;;;24.10;15.10;;;;;;;-3.20;86.62;100538.79;106452;1258;60608;-77
2024/01/10 10:48:20;;;;;;;24.10;15.00;;;;;;;-3.23;86.77;100539.94;106243;1255;60210;-77
2024/01/10 10:50:56;;;;;;;23.50;14.40;;;;;;;-3.24;86.87;100543.27;106201;1256;72223;-77
2024/01/10 10:53:23;;;;;;;24.20;15.40;;;;;;;-3.19;86.58;100544.61;106052;1253;70209;-78
2024/01/10 10:55:49;;;;;;;28.10;17.00;;;;;;;-3.10;86.38;100547.23;105823;1256;72263;-79
2024/01/10 10:58:16;;;;;;;26.90;16.20;;;;;;;-3.14;86.61;100551.73;105736;1258;59505;-77
2024/01/10 11:00:43;;;;;;;24.60;15.20;;;;;;;-3.22;86.85;100554.29;105813;1257;59631;-79
2024/01/10 11:03:12;;;;;;;25.20;15.00;;;;;;;-3.26;87.06;100549.79;106028;1253;73096;-78
2024/01/10 11:05:40;;;;;;;25.10;15.50;;;;;;;-3.25;86.96;100551.98;105841;1258;69014;-77
2024/01/10 11:08:12;;;;;;;24.00;15.00;;;;;;;-3.12;86.69;100548.16;105955;1256;73687;-77
2024/01/10 11:10:39;;;;;;;28.50;15.70;;;;;;;-3.08;86.56;100546.10;105898;1259;59611;-77
2024/01/10 11:13:32;;;;;;;27.90;16.70;;;;;;;-3.08;87.08;100546.96;105863;1255;60213;-76
2024/01/10 11:16:21;;;;;;;22.50;14.40;;;;;;;-3.07;86.77;100545.73;106949;1256;74229;-76